createdAt,value
2018-05-26T00:00:34.349Z,20.84
2018-05-26T00:01:34.295Z,20.84
2018-05-26T00:02:34.276Z,20.83
2018-05-26T00:03:34.252Z,20.83
2018-05-26T00:04:34.284Z,20.84
2018-05-26T00:05:34.335Z,20.82
2018-05-26T00:06:34.295Z,20.79
2018-05-26T00:07:34.300Z,20.78
2018-05-26T00:08:34.286Z,20.78
2018-05-26T00:09:34.283Z,20.78
2018-05-26T00:10:34.313Z,20.78
2018-05-26T00:11:34.316Z,20.77
2018-05-26T00:12:34.307Z,20.78
2018-05-26T00:13:34.296Z,20.76
2018-05-26T00:14:34.281Z,20.76
2018-05-26T00:15:34.274Z,20.75
2018-05-26T00:16:34.302Z,20.74
2018-05-26T00:17:34.353Z,20.75
2018-05-26T00:18:34.309Z,20.73
2018-05-26T00:19:34.287Z,20.73
2018-05-26T00:20:34.278Z,20.75
2018-05-26T00:21:34.293Z,20.73
2018-05-26T00:22:34.279Z,20.75
2018-05-26T00:23:34.296Z,20.75
2018-05-26T00:24:34.312Z,20.72
2018-05-26T00:25:34.890Z,20.72
2018-05-26T00:26:34.335Z,20.72
2018-05-26T00:27:34.285Z,20.68
2018-05-26T00:28:34.298Z,20.69
2018-05-26T00:29:34.314Z,20.6
2018-05-26T00:30:34.305Z,20.61
2018-05-26T00:31:34.372Z,20.6
2018-05-26T00:32:34.309Z,20.56
2018-05-26T00:33:34.304Z,20.57
2018-05-26T00:34:34.306Z,20.55
2018-05-26T00:35:34.285Z,20.53
2018-05-26T00:36:34.301Z,20.53
2018-05-26T00:37:34.271Z,20.52
2018-05-26T00:38:34.273Z,20.52
2018-05-26T00:39:34.307Z,20.51
2018-05-26T00:40:34.296Z,20.48
2018-05-26T00:41:34.329Z,20.48
2018-05-26T00:42:34.391Z,20.48
2018-05-26T00:43:34.344Z,20.47
2018-05-26T00:44:34.478Z,20.47
2018-05-26T00:45:34.334Z,20.46
2018-05-26T00:46:34.374Z,20.45
2018-05-26T00:47:34.281Z,20.45
2018-05-26T00:48:34.306Z,20.46
2018-05-26T00:49:34.285Z,20.46
2018-05-26T00:50:34.318Z,20.44
2018-05-26T00:51:34.356Z,20.44
2018-05-26T00:52:34.305Z,20.45
2018-05-26T00:53:34.308Z,20.42
2018-05-26T00:54:34.314Z,20.42
2018-05-26T00:55:34.287Z,20.42
2018-05-26T00:56:34.297Z,20.41
2018-05-26T00:57:34.318Z,20.43
2018-05-26T00:58:34.322Z,20.43
2018-05-26T00:59:34.378Z,20.41
2018-05-26T01:00:34.303Z,20.41
2018-05-26T01:01:34.330Z,20.43
2018-05-26T01:02:34.366Z,20.39
2018-05-26T01:03:34.328Z,20.38
2018-05-26T01:04:34.463Z,20.35
2018-05-26T01:05:34.348Z,20.35
2018-05-26T01:06:34.321Z,20.33
2018-05-26T01:07:34.319Z,20.32
2018-05-26T01:08:34.366Z,20.33
2018-05-26T01:09:34.431Z,20.32
2018-05-26T01:10:34.325Z,20.29
2018-05-26T01:11:34.324Z,20.28
2018-05-26T01:12:34.310Z,20.28
2018-05-26T01:13:34.298Z,20.29
2018-05-26T01:14:34.322Z,20.28
2018-05-26T01:15:34.383Z,20.27
2018-05-26T01:16:34.338Z,20.27
2018-05-26T01:17:34.744Z,20.25
2018-05-26T01:18:34.489Z,20.23
2018-05-26T01:19:34.328Z,20.23
2018-05-26T01:20:34.313Z,20.23
2018-05-26T01:21:34.297Z,20.21
2018-05-26T01:22:34.319Z,20.19
2018-05-26T01:23:34.309Z,20.15
2018-05-26T01:24:34.344Z,20.15
2018-05-26T01:25:34.314Z,20.13
2018-05-26T01:26:34.334Z,20.14
2018-05-26T01:27:34.370Z,20.13
2018-05-26T01:28:34.332Z,20.13
2018-05-26T01:29:34.329Z,20.1
2018-05-26T01:30:34.413Z,20.1
2018-05-26T01:31:34.334Z,20.12
2018-05-26T01:32:34.340Z,20.09
2018-05-26T01:33:34.631Z,20.11
2018-05-26T01:34:34.332Z,20.09
2018-05-26T01:35:34.325Z,20.09
2018-05-26T01:36:34.348Z,20.09
2018-05-26T01:37:34.332Z,20.08
2018-05-26T01:38:34.332Z,20.07
2018-05-26T01:39:34.327Z,20.06
2018-05-26T01:40:34.343Z,20.06
2018-05-26T01:41:34.357Z,20.06
2018-05-26T01:42:34.354Z,20.03
2018-05-26T01:43:34.327Z,20.03
2018-05-26T01:44:34.413Z,20.03
2018-05-26T01:45:34.340Z,20.02
2018-05-26T01:46:34.339Z,20.02
2018-05-26T01:47:34.357Z,20.01
2018-05-26T01:48:34.347Z,20.02
2018-05-26T01:49:34.365Z,20.02
2018-05-26T01:50:34.359Z,20.01
2018-05-26T01:51:34.328Z,20
2018-05-26T01:52:34.393Z,19.97
2018-05-26T01:53:34.329Z,19.97
2018-05-26T01:54:34.389Z,19.97
2018-05-26T01:55:34.343Z,19.92
2018-05-26T01:56:34.326Z,19.91
2018-05-26T01:57:34.397Z,19.92
2018-05-26T01:58:34.373Z,19.92
2018-05-26T01:59:34.352Z,19.91
2018-05-26T02:00:34.362Z,19.88
2018-05-26T02:01:34.331Z,19.87
2018-05-26T02:02:34.349Z,19.88
2018-05-26T02:03:34.367Z,19.84
2018-05-26T02:04:34.388Z,19.83
2018-05-26T02:05:34.397Z,19.81
2018-05-26T02:06:34.343Z,19.81
2018-05-26T02:07:34.363Z,19.82
2018-05-26T02:08:34.362Z,19.82
2018-05-26T02:09:34.489Z,19.83
2018-05-26T02:10:34.528Z,19.83
2018-05-26T02:11:34.356Z,19.83
2018-05-26T02:12:34.408Z,19.83
2018-05-26T02:13:34.332Z,19.82
2018-05-26T02:14:34.431Z,19.82
2018-05-26T02:15:34.366Z,19.81
2018-05-26T02:16:34.395Z,19.81
2018-05-26T02:17:34.403Z,19.79
2018-05-26T02:18:34.351Z,19.81
2018-05-26T02:19:34.521Z,19.78
2018-05-26T02:20:34.423Z,19.78
2018-05-26T02:21:34.370Z,19.77
2018-05-26T02:22:34.407Z,19.72
2018-05-26T02:23:34.343Z,19.71
2018-05-26T02:24:34.716Z,19.69
2018-05-26T02:25:34.358Z,19.65
2018-05-26T02:26:34.617Z,19.68
2018-05-26T02:27:34.353Z,19.65
2018-05-26T02:28:34.369Z,19.68
2018-05-26T02:29:34.409Z,19.69
2018-05-26T02:30:34.412Z,19.69
2018-05-26T02:31:34.424Z,19.64
2018-05-26T02:32:34.389Z,19.63
2018-05-26T02:33:34.423Z,19.6
2018-05-26T02:34:34.544Z,19.61
2018-05-26T02:35:34.391Z,19.61
2018-05-26T02:36:34.398Z,19.58
2018-05-26T02:37:34.417Z,19.59
2018-05-26T02:38:34.354Z,19.58
2018-05-26T02:39:34.373Z,19.53
2018-05-26T02:40:34.356Z,19.54
2018-05-26T02:41:34.354Z,19.53
2018-05-26T02:42:54.658Z,19.55
2018-05-26T02:43:54.677Z,19.53
2018-05-26T02:44:54.653Z,19.55
2018-05-26T02:45:54.694Z,19.52
2018-05-26T02:46:54.659Z,19.52
2018-05-26T02:47:54.664Z,19.52
2018-05-26T02:48:54.645Z,19.5
2018-05-26T02:49:54.662Z,19.5
2018-05-26T02:50:54.622Z,19.47
2018-05-26T02:51:54.654Z,19.5
2018-05-26T02:52:54.680Z,19.47
2018-05-26T02:53:54.618Z,19.43
2018-05-26T02:54:54.670Z,19.41
2018-05-26T02:55:54.623Z,19.39
2018-05-26T02:56:54.664Z,19.39
2018-05-26T02:57:54.663Z,19.35
2018-05-26T02:58:54.684Z,19.33
2018-05-26T02:59:54.620Z,19.34
2018-05-26T03:00:54.692Z,19.37
2018-05-26T03:01:54.661Z,19.33
2018-05-26T03:02:54.631Z,19.33
2018-05-26T03:03:54.630Z,19.33
2018-05-26T03:04:54.635Z,19.31
2018-05-26T03:05:54.653Z,19.33
2018-05-26T03:06:54.652Z,19.33
2018-05-26T03:07:54.627Z,19.32
2018-05-26T03:08:54.663Z,19.27
2018-05-26T03:09:54.693Z,19.26
2018-05-26T03:10:54.667Z,19.25
2018-05-26T03:11:54.648Z,19.24
2018-05-26T03:12:54.992Z,19.23
2018-05-26T03:13:54.651Z,19.22
2018-05-26T03:14:54.656Z,19.2
2018-05-26T03:15:54.621Z,19.2
2018-05-26T03:16:54.649Z,19.2
2018-05-26T03:17:54.694Z,19.11
2018-05-26T03:18:54.653Z,19.12
2018-05-26T03:19:54.622Z,19.12
2018-05-26T03:20:54.607Z,19.1
2018-05-26T03:21:54.601Z,19.07
2018-05-26T03:22:54.607Z,19.07
2018-05-26T03:23:54.647Z,19.06
2018-05-26T03:24:54.842Z,19.05
2018-05-26T03:25:54.619Z,19.03
2018-05-26T03:26:54.611Z,19.05
2018-05-26T03:27:54.608Z,19.03
2018-05-26T03:28:54.610Z,19
2018-05-26T03:29:54.607Z,19.01
2018-05-26T03:30:54.625Z,19.02
2018-05-26T03:31:54.603Z,19
2018-05-26T03:32:54.701Z,19
2018-05-26T03:33:54.623Z,19.03
2018-05-26T03:34:54.591Z,19.06
2018-05-26T03:35:54.629Z,19.07
2018-05-26T03:36:54.599Z,19.07
2018-05-26T03:37:54.709Z,19.08
2018-05-26T03:38:54.688Z,19.09
2018-05-26T03:39:54.592Z,19.13
2018-05-26T03:40:54.623Z,19.14
2018-05-26T03:41:54.606Z,19.14
2018-05-26T03:42:54.677Z,19.15
2018-05-26T03:43:54.601Z,19.12
2018-05-26T03:44:54.606Z,19.1
2018-05-26T03:45:54.661Z,19.11
2018-05-26T03:46:54.644Z,19.11
2018-05-26T03:47:54.588Z,19.13
2018-05-26T03:48:54.646Z,19.14
2018-05-26T03:49:54.715Z,19.17
2018-05-26T03:50:54.767Z,19.15
2018-05-26T03:51:54.645Z,19.17
2018-05-26T03:52:54.572Z,19.18
2018-05-26T03:53:54.588Z,19.18
2018-05-26T03:54:54.965Z,19.18
2018-05-26T03:55:54.589Z,19.19
2018-05-26T03:56:54.601Z,19.2
2018-05-26T03:57:54.624Z,19.18
2018-05-26T03:58:54.593Z,19.19
2018-05-26T03:59:54.599Z,19.2
2018-05-26T04:00:54.601Z,19.2
2018-05-26T04:01:54.603Z,19.23
2018-05-26T04:02:54.648Z,19.22
2018-05-26T04:03:54.571Z,19.24
2018-05-26T04:04:54.776Z,19.21
2018-05-26T04:05:55.938Z,19.23
2018-05-26T04:06:54.589Z,19.24
2018-05-26T04:07:54.789Z,19.23
2018-05-26T04:08:54.590Z,19.24
2018-05-26T04:09:54.615Z,19.25
2018-05-26T04:10:54.590Z,19.22
2018-05-26T04:11:54.601Z,19.26
2018-05-26T04:12:54.617Z,19.25
2018-05-26T04:13:54.600Z,19.23
2018-05-26T04:14:54.601Z,19.27
2018-05-26T04:15:54.619Z,19.26
2018-05-26T04:16:54.697Z,19.27
2018-05-26T04:17:54.581Z,19.27
2018-05-26T04:18:54.555Z,19.27
2018-05-26T04:19:54.685Z,19.27
2018-05-26T04:20:54.581Z,19.27
2018-05-26T04:21:54.973Z,19.27
2018-05-26T04:22:54.583Z,19.27
2018-05-26T04:23:55.031Z,19.24
2018-05-26T04:24:56.571Z,19.24
2018-05-26T04:25:54.612Z,19.26
2018-05-26T04:26:54.639Z,19.23
2018-05-26T04:27:54.621Z,19.23
2018-05-26T04:28:54.566Z,19.23
2018-05-26T04:29:55.359Z,19.23
2018-05-26T04:30:54.731Z,19.27
2018-05-26T04:31:54.872Z,19.26
2018-05-26T04:32:54.656Z,19.24
2018-05-26T04:33:54.654Z,19.26
2018-05-26T04:34:54.739Z,19.24
2018-05-26T04:35:54.634Z,19.27
2018-05-26T04:36:54.669Z,19.27
2018-05-26T04:37:54.670Z,19.28
2018-05-26T04:38:54.650Z,19.28
2018-05-26T04:39:54.622Z,19.28
2018-05-26T04:40:54.607Z,19.28
2018-05-26T04:41:54.609Z,19.27
2018-05-26T04:42:54.614Z,19.29
2018-05-26T04:43:54.613Z,19.28
2018-05-26T04:44:55.892Z,19.28
2018-05-26T04:45:54.694Z,19.28
2018-05-26T04:46:54.613Z,19.27
2018-05-26T04:47:54.615Z,19.24
2018-05-26T04:48:54.619Z,19.27
2018-05-26T04:49:54.593Z,19.25
2018-05-26T04:50:54.673Z,19.24
2018-05-26T04:51:54.656Z,19.26
2018-05-26T04:52:54.605Z,19.28
2018-05-26T04:53:54.675Z,19.28
2018-05-26T04:54:54.643Z,19.29
2018-05-26T04:55:54.599Z,19.28
2018-05-26T04:56:54.637Z,19.29
2018-05-26T04:57:54.620Z,19.3
2018-05-26T04:58:54.613Z,19.3
2018-05-26T04:59:54.603Z,19.33
2018-05-26T05:00:54.621Z,19.35
2018-05-26T05:01:54.607Z,19.34
2018-05-26T05:02:54.737Z,19.37
2018-05-26T05:03:54.612Z,19.36
2018-05-26T05:04:54.586Z,19.37
2018-05-26T05:05:54.574Z,19.38
2018-05-26T05:06:54.602Z,19.37
2018-05-26T05:07:54.751Z,19.4
2018-05-26T05:08:54.667Z,19.43
2018-05-26T05:09:54.612Z,19.43
2018-05-26T05:10:54.621Z,19.46
2018-05-26T05:11:54.565Z,19.47
2018-05-26T05:12:54.595Z,19.45
2018-05-26T05:13:54.547Z,19.46
2018-05-26T05:14:54.587Z,19.48
2018-05-26T05:15:54.547Z,19.47
2018-05-26T05:16:54.574Z,19.41
2018-05-26T05:17:54.562Z,19.43
2018-05-26T05:18:54.565Z,19.43
2018-05-26T05:19:54.572Z,19.44
2018-05-26T05:20:54.691Z,19.43
2018-05-26T05:21:54.587Z,19.46
2018-05-26T05:22:54.883Z,19.49
2018-05-26T05:23:54.566Z,19.5
2018-05-26T05:24:54.588Z,19.51
2018-05-26T05:25:54.559Z,19.54
2018-05-26T05:26:54.549Z,19.56
2018-05-26T05:27:54.916Z,19.58
2018-05-26T05:28:54.568Z,19.57
2018-05-26T05:29:54.615Z,19.6
2018-05-26T05:30:54.640Z,19.61
2018-05-26T05:31:55.392Z,19.64
2018-05-26T05:32:54.640Z,19.63
2018-05-26T05:33:54.817Z,19.66
2018-05-26T05:34:54.579Z,19.66
2018-05-26T05:35:54.658Z,19.63
2018-05-26T05:36:54.595Z,19.64
2018-05-26T05:37:54.603Z,19.65
2018-05-26T05:38:54.535Z,19.66
2018-05-26T05:39:54.615Z,19.69
2018-05-26T05:40:54.626Z,19.71
2018-05-26T05:41:54.690Z,19.71
2018-05-26T05:42:54.605Z,19.71
2018-05-26T05:43:54.619Z,19.73
2018-05-26T05:44:54.639Z,19.75
2018-05-26T05:45:54.590Z,19.77
2018-05-26T05:46:54.558Z,19.77
2018-05-26T05:47:54.572Z,19.79
2018-05-26T05:48:54.563Z,19.79
2018-05-26T05:49:54.563Z,19.77
2018-05-26T05:50:54.581Z,19.77
2018-05-26T05:51:54.558Z,19.79
2018-05-26T05:52:54.647Z,19.81
2018-05-26T05:53:54.768Z,19.81
2018-05-26T05:54:54.713Z,19.83
2018-05-26T05:55:54.591Z,19.84
2018-05-26T05:56:54.604Z,19.85
2018-05-26T05:57:54.680Z,19.85
2018-05-26T05:58:54.881Z,19.89
2018-05-26T05:59:54.589Z,19.89
2018-05-26T06:00:54.572Z,19.91
2018-05-26T06:01:54.591Z,19.94
2018-05-26T06:02:54.575Z,19.93
2018-05-26T06:03:54.570Z,19.95
2018-05-26T06:04:54.615Z,19.97
2018-05-26T06:05:54.859Z,19.97
2018-05-26T06:06:54.803Z,19.98
2018-05-26T06:07:54.594Z,19.99
2018-05-26T06:08:54.571Z,20.02
2018-05-26T06:09:54.770Z,20.02
2018-05-26T06:10:54.664Z,20.02
2018-05-26T06:11:54.550Z,20.03
2018-05-26T06:12:54.586Z,20.02
2018-05-26T06:13:54.707Z,20.04
2018-05-26T06:14:55.036Z,20.06
2018-05-26T06:15:54.584Z,20.05
2018-05-26T06:16:54.584Z,20.07
2018-05-26T06:17:54.982Z,20.07
2018-05-26T06:18:54.599Z,20.05
2018-05-26T06:19:54.560Z,20.05
2018-05-26T06:20:54.560Z,20.04
2018-05-26T06:21:54.605Z,20.07
2018-05-26T06:22:54.542Z,20.07
2018-05-26T06:23:54.552Z,20.04
2018-05-26T06:24:54.554Z,20.06
2018-05-26T06:25:54.588Z,20.07
2018-05-26T06:26:54.528Z,20.04
2018-05-26T06:27:54.539Z,20.06
2018-05-26T06:28:54.560Z,20.03
2018-05-26T06:29:54.547Z,20.04
2018-05-26T06:30:54.535Z,20.04
2018-05-26T06:31:54.555Z,20.02
2018-05-26T06:32:54.528Z,20.06
2018-05-26T06:33:54.585Z,20.04
2018-05-26T06:34:54.627Z,20.05
2018-05-26T06:35:54.930Z,20.08
2018-05-26T06:36:54.540Z,20.07
2018-05-26T06:37:54.653Z,20.08
2018-05-26T06:38:54.618Z,20.09
2018-05-26T06:39:54.616Z,20.11
2018-05-26T06:40:54.599Z,20.14
2018-05-26T06:41:54.695Z,20.16
2018-05-26T06:42:54.546Z,20.16
2018-05-26T06:43:54.511Z,20.21
2018-05-26T06:44:54.514Z,20.22
2018-05-26T06:45:54.598Z,20.27
2018-05-26T06:46:54.767Z,20.28
2018-05-26T06:47:54.549Z,20.3
2018-05-26T06:48:54.874Z,20.35
2018-05-26T06:49:54.551Z,20.39
2018-05-26T06:50:54.676Z,20.38
2018-05-26T06:51:54.573Z,20.43
2018-05-26T06:52:54.566Z,20.45
2018-05-26T06:53:54.650Z,20.46
2018-05-26T06:54:54.550Z,20.47
2018-05-26T06:55:54.875Z,20.49
2018-05-26T06:56:54.535Z,20.52
2018-05-26T06:57:54.534Z,20.54
2018-05-26T06:58:54.563Z,20.59
2018-05-26T06:59:54.501Z,20.59
2018-05-26T07:00:54.800Z,20.63
2018-05-26T07:01:54.506Z,20.62
2018-05-26T07:02:54.536Z,20.66
2018-05-26T07:03:54.510Z,20.68
2018-05-26T07:04:54.694Z,20.71
2018-05-26T07:05:54.797Z,20.73
2018-05-26T07:06:54.572Z,20.78
2018-05-26T07:07:54.550Z,20.79
2018-05-26T07:08:55.375Z,20.82
2018-05-26T07:09:54.512Z,20.83
2018-05-26T07:10:54.486Z,20.85
2018-05-26T07:11:54.517Z,20.88
2018-05-26T07:12:54.577Z,20.89
2018-05-26T07:13:54.573Z,20.93
2018-05-26T07:14:54.506Z,20.93
2018-05-26T07:15:54.578Z,20.96
2018-05-26T07:16:54.544Z,20.98
2018-05-26T07:17:54.519Z,21.02
2018-05-26T07:18:54.504Z,21.03
2018-05-26T07:19:54.503Z,21.07
2018-05-26T07:20:54.521Z,21.08
2018-05-26T07:21:54.534Z,21.1
2018-05-26T07:22:54.788Z,21.11
2018-05-26T07:23:54.555Z,21.16
2018-05-26T07:24:54.630Z,21.19
2018-05-26T07:25:54.528Z,21.21
2018-05-26T07:26:54.540Z,21.22
2018-05-26T07:27:54.951Z,21.27
2018-05-26T07:28:54.502Z,21.3
2018-05-26T07:29:54.548Z,21.37
2018-05-26T07:30:54.564Z,21.39
2018-05-26T07:31:54.490Z,21.41
2018-05-26T07:32:54.497Z,21.45
2018-05-26T07:33:54.507Z,21.48
2018-05-26T07:34:54.586Z,21.53
2018-05-26T07:35:55.191Z,21.56
2018-05-26T07:36:54.494Z,21.62
2018-05-26T07:37:54.532Z,21.64
2018-05-26T07:38:54.562Z,21.68
2018-05-26T07:39:54.549Z,21.71
2018-05-26T07:40:54.604Z,21.76
2018-05-26T07:41:54.559Z,21.77
2018-05-26T07:42:54.638Z,21.73
2018-05-26T07:43:54.530Z,21.74
2018-05-26T07:44:54.516Z,21.75
2018-05-26T07:45:55.496Z,21.76
2018-05-26T07:46:54.551Z,21.76
2018-05-26T07:47:54.541Z,21.79
2018-05-26T07:48:54.503Z,21.84
2018-05-26T07:49:54.511Z,21.86
2018-05-26T07:50:54.866Z,21.88
2018-05-26T07:51:54.542Z,21.88
2018-05-26T07:52:54.501Z,21.86
2018-05-26T07:53:55.062Z,21.87
2018-05-26T07:54:54.536Z,21.89
2018-05-26T07:55:54.495Z,21.91
2018-05-26T07:56:54.513Z,21.92
2018-05-26T07:57:55.605Z,21.96
2018-05-26T07:58:54.582Z,21.96
2018-05-26T07:59:54.605Z,22
2018-05-26T08:00:54.741Z,22.03
2018-05-26T08:01:55.588Z,22.07
2018-05-26T08:02:54.530Z,22.1
2018-05-26T08:03:54.506Z,22.17
2018-05-26T08:04:54.493Z,22.21
2018-05-26T08:05:54.519Z,22.23
2018-05-26T08:06:54.494Z,22.24
2018-05-26T08:07:54.512Z,22.21
2018-05-26T08:08:54.543Z,22.23
2018-05-26T08:09:54.473Z,22.23
2018-05-26T08:10:54.952Z,22.27
2018-05-26T08:11:54.521Z,22.39
2018-05-26T08:12:54.576Z,22.4
2018-05-26T08:13:54.538Z,22.44
2018-05-26T08:14:54.508Z,22.45
2018-05-26T08:15:54.478Z,22.47
2018-05-26T08:16:54.655Z,22.54
2018-05-26T08:17:54.484Z,22.54
2018-05-26T08:18:54.544Z,22.59
2018-05-26T08:19:54.529Z,22.67
2018-05-26T08:20:54.520Z,22.67
2018-05-26T08:21:54.528Z,22.7
2018-05-26T08:22:54.543Z,22.71
2018-05-26T08:23:54.461Z,22.73
2018-05-26T08:24:54.507Z,22.76
2018-05-26T08:25:54.683Z,22.8
2018-05-26T08:26:54.521Z,22.82
2018-05-26T08:27:54.476Z,22.88
2018-05-26T08:28:54.549Z,22.89
2018-05-26T08:29:54.654Z,22.9
2018-05-26T08:30:54.653Z,22.93
2018-05-26T08:31:54.465Z,22.96
2018-05-26T08:32:54.487Z,23.01
2018-05-26T08:33:55.120Z,23.02
2018-05-26T08:34:54.525Z,23.03
2018-05-26T08:35:54.522Z,23.09
2018-05-26T08:36:54.505Z,23.14
2018-05-26T08:37:54.510Z,23.15
2018-05-26T08:38:54.990Z,23.19
2018-05-26T08:39:55.041Z,23.25
2018-05-26T08:40:54.509Z,23.25
2018-05-26T08:41:54.493Z,23.24
2018-05-26T08:42:54.507Z,23.24
2018-05-26T08:43:55.010Z,23.25
2018-05-26T08:44:54.518Z,23.27
2018-05-26T08:45:54.514Z,23.3
2018-05-26T08:46:54.475Z,23.32
2018-05-26T08:47:54.500Z,23.34
2018-05-26T08:48:54.510Z,23.35
2018-05-26T08:49:54.483Z,23.4
2018-05-26T08:50:54.538Z,23.47
2018-05-26T08:51:54.480Z,23.5
2018-05-26T08:52:54.494Z,23.53
2018-05-26T08:53:54.518Z,23.57
2018-05-26T08:54:56.904Z,23.57
2018-05-26T08:55:54.474Z,23.61
2018-05-26T08:56:54.503Z,23.6
2018-05-26T08:57:54.468Z,23.65
2018-05-26T08:58:54.566Z,23.71
2018-05-26T08:59:54.655Z,23.75
2018-05-26T09:00:54.526Z,23.75
2018-05-26T09:01:54.500Z,23.78
2018-05-26T09:02:54.452Z,23.83
2018-05-26T09:03:56.790Z,23.86
2018-05-26T09:04:54.537Z,23.93
2018-05-26T09:05:54.465Z,23.93
2018-05-26T09:06:54.480Z,23.96
2018-05-26T09:07:54.504Z,24.01
2018-05-26T09:08:54.459Z,24.04
2018-05-26T09:09:54.499Z,24.05
2018-05-26T09:10:54.591Z,24.05
2018-05-26T09:11:56.661Z,24.03
2018-05-26T09:12:54.585Z,24.06
2018-05-26T09:13:54.493Z,24.02
2018-05-26T09:14:54.915Z,24.01
2018-05-26T09:15:54.869Z,24.04
2018-05-26T09:16:54.536Z,24.01
2018-05-26T09:17:56.006Z,24.01
2018-05-26T09:18:54.501Z,24.04
2018-05-26T09:19:54.496Z,24.04
2018-05-26T09:20:54.505Z,24.04
2018-05-26T09:21:54.974Z,24.07
2018-05-26T09:22:54.493Z,24.1
2018-05-26T09:23:54.503Z,24.08
2018-05-26T09:24:54.469Z,24.08
2018-05-26T09:25:54.460Z,24.11
2018-05-26T09:26:54.473Z,24.12
2018-05-26T09:27:54.479Z,24.16
2018-05-26T09:28:54.517Z,24.14
2018-05-26T09:29:54.470Z,24.2
2018-05-26T09:30:54.479Z,24.21
2018-05-26T09:31:54.489Z,24.23
2018-05-26T09:32:54.468Z,24.26
2018-05-26T09:33:54.499Z,24.29
2018-05-26T09:34:54.517Z,24.34
2018-05-26T09:35:54.515Z,24.43
2018-05-26T09:36:55.407Z,24.46
2018-05-26T09:37:54.537Z,24.53
2018-05-26T09:38:54.654Z,24.53
2018-05-26T09:39:54.458Z,24.57
2018-05-26T09:40:54.675Z,24.58
2018-05-26T09:41:54.671Z,24.61
2018-05-26T09:42:54.515Z,24.64
2018-05-26T09:43:54.505Z,24.65
2018-05-26T09:44:54.487Z,24.7
2018-05-26T09:45:55.114Z,24.73
2018-05-26T09:46:55.223Z,24.78
2018-05-26T09:47:55.223Z,24.78
2018-05-26T09:48:55.228Z,24.88
2018-05-26T09:49:55.111Z,24.9
2018-05-26T09:50:55.257Z,24.95
2018-05-26T09:51:55.176Z,25.03
2018-05-26T09:52:55.183Z,25
2018-05-26T09:53:55.638Z,24.98
2018-05-26T09:54:55.414Z,25
2018-05-26T09:55:55.297Z,25.02
2018-05-26T09:56:55.305Z,25.02
2018-05-26T09:57:56.164Z,25.08
2018-05-26T09:58:55.952Z,25.16
2018-05-26T09:59:55.133Z,25.19
2018-05-26T10:00:55.190Z,25.21
2018-05-26T10:01:55.228Z,25.28
2018-05-26T10:02:56.213Z,25.27
2018-05-26T10:03:56.160Z,25.24
2018-05-26T10:04:55.316Z,25.25
2018-05-26T10:05:55.169Z,25.19
2018-05-26T10:06:55.804Z,25.25
2018-05-26T10:07:55.195Z,25.3
2018-05-26T10:08:55.849Z,25.28
2018-05-26T10:09:55.455Z,25.35
2018-05-26T10:10:55.212Z,25.37
2018-05-26T10:11:55.057Z,25.37
2018-05-26T10:12:55.201Z,25.36
2018-05-26T10:13:55.342Z,25.39
2018-05-26T10:14:55.217Z,25.4
2018-05-26T10:15:55.187Z,25.45
2018-05-26T10:16:56.012Z,25.51
2018-05-26T10:17:55.226Z,25.53
2018-05-26T10:18:54.997Z,25.55
2018-05-26T10:19:55.728Z,25.58
2018-05-26T10:20:56.071Z,25.6
2018-05-26T10:21:55.257Z,25.64
2018-05-26T10:22:55.236Z,25.65
2018-05-26T10:23:55.191Z,25.68
2018-05-26T10:24:55.314Z,25.72
2018-05-26T10:25:56.025Z,25.7
2018-05-26T10:26:55.264Z,25.69
2018-05-26T10:27:55.131Z,25.7
2018-05-26T10:28:55.608Z,25.77
2018-05-26T10:29:55.451Z,25.75
2018-05-26T10:30:56.180Z,25.77
2018-05-26T10:31:55.280Z,25.83
2018-05-26T10:32:55.224Z,25.87
2018-05-26T10:33:55.789Z,25.89
2018-05-26T10:34:55.902Z,25.95
2018-05-26T10:35:55.216Z,26.03
2018-05-26T10:36:55.215Z,25.99
2018-05-26T10:37:55.729Z,25.99
2018-05-26T10:38:55.490Z,26.01
2018-05-26T10:39:55.279Z,26.02
2018-05-26T10:40:55.583Z,26.07
2018-05-26T10:41:55.151Z,25.94
2018-05-26T10:42:54.435Z,26
2018-05-26T10:43:55.450Z,25.88
2018-05-26T10:44:55.339Z,25.93
2018-05-26T10:45:54.459Z,25.95
2018-05-26T10:46:54.520Z,25.95
2018-05-26T10:47:54.511Z,25.94
2018-05-26T10:48:54.527Z,25.93
2018-05-26T10:49:55.024Z,25.95
2018-05-26T10:50:54.637Z,25.93
2018-05-26T10:51:54.432Z,25.94
2018-05-26T10:52:54.680Z,25.96
2018-05-26T10:53:54.503Z,25.96
2018-05-26T10:54:54.580Z,25.96
2018-05-26T10:55:55.007Z,25.96
2018-05-26T10:56:54.516Z,25.96
2018-05-26T10:57:54.505Z,26
2018-05-26T10:58:54.471Z,26
2018-05-26T10:59:54.524Z,26.03
2018-05-26T11:00:54.428Z,26.02
2018-05-26T11:01:54.544Z,25.97
2018-05-26T11:02:54.449Z,26.12
2018-05-26T11:03:54.521Z,26.1
2018-05-26T11:04:54.664Z,26.16
2018-05-26T11:05:54.583Z,26.15
2018-05-26T11:06:54.859Z,26.21
2018-05-26T11:07:54.464Z,26.16
2018-05-26T11:08:54.576Z,26.27
2018-05-26T11:09:54.430Z,26.32
2018-05-26T11:10:54.608Z,26.34
2018-05-26T11:11:54.541Z,26.38
2018-05-26T11:12:54.596Z,26.43
2018-05-26T11:13:54.626Z,26.48
2018-05-26T11:14:55.108Z,26.51
2018-05-26T11:15:54.475Z,26.53
2018-05-26T11:16:55.576Z,26.6
2018-05-26T11:17:57.382Z,26.61
2018-05-26T11:18:55.096Z,26.7
2018-05-26T11:19:54.649Z,26.7
2018-05-26T11:20:54.487Z,26.71
2018-05-26T11:21:54.443Z,26.77
2018-05-26T11:22:54.820Z,26.78
2018-05-26T11:23:55.378Z,26.84
2018-05-26T11:24:54.832Z,26.88
2018-05-26T11:25:54.561Z,26.88
2018-05-26T11:26:54.801Z,26.91
2018-05-26T11:27:54.518Z,26.94
2018-05-26T11:28:55.134Z,26.96
2018-05-26T11:29:55.167Z,26.99
2018-05-26T11:30:54.975Z,27.05
2018-05-26T11:31:54.701Z,27.09
2018-05-26T11:32:54.475Z,27.15
2018-05-26T11:33:54.429Z,27.16
2018-05-26T11:34:54.556Z,27.17
2018-05-26T11:35:54.414Z,27.21
2018-05-26T11:36:54.417Z,27.2
2018-05-26T11:37:54.608Z,27.23
2018-05-26T11:38:54.419Z,27.16
2018-05-26T11:39:54.402Z,27.13
2018-05-26T11:40:54.549Z,27.15
2018-05-26T11:41:54.578Z,27.21
2018-05-26T11:42:54.433Z,27.21
2018-05-26T11:43:54.459Z,27.22
2018-05-26T11:44:54.469Z,27.27
2018-05-26T11:45:54.420Z,27.29
2018-05-26T11:46:54.548Z,27.34
2018-05-26T11:47:54.550Z,27.36
2018-05-26T11:48:54.440Z,27.36
2018-05-26T11:49:54.536Z,27.39
2018-05-26T11:50:54.417Z,27.41
2018-05-26T11:51:54.425Z,27.4
2018-05-26T11:52:54.579Z,27.4
2018-05-26T11:53:54.449Z,27.44
2018-05-26T11:54:54.404Z,27.47
2018-05-26T11:55:54.486Z,27.47
2018-05-26T11:56:54.417Z,27.51
2018-05-26T11:57:54.450Z,27.52
2018-05-26T11:58:54.567Z,27.44
2018-05-26T11:59:54.417Z,27.36
2018-05-26T12:00:54.424Z,27.32
2018-05-26T12:01:55.244Z,27.35
2018-05-26T12:02:54.651Z,27.41
2018-05-26T12:03:54.396Z,27.41
2018-05-26T12:04:54.561Z,27.43
2018-05-26T12:05:54.435Z,27.47
2018-05-26T12:06:54.583Z,27.48
2018-05-26T12:07:54.476Z,27.53
2018-05-26T12:08:54.414Z,27.53
2018-05-26T12:09:54.516Z,27.54
2018-05-26T12:10:55.406Z,27.57
2018-05-26T12:11:54.438Z,27.6
2018-05-26T12:12:54.656Z,27.62
2018-05-26T12:13:54.499Z,27.37
2018-05-26T12:14:54.424Z,27.2
2018-05-26T12:15:54.454Z,27.13
2018-05-26T12:16:54.739Z,27.11
2018-05-26T12:17:54.660Z,27.16
2018-05-26T12:18:54.454Z,27.15
2018-05-26T12:19:54.567Z,27.2
2018-05-26T12:20:54.514Z,27.25
2018-05-26T12:21:54.527Z,27.24
2018-05-26T12:22:54.492Z,27.28
2018-05-26T12:23:54.412Z,27.42
2018-05-26T12:24:54.532Z,27.48
2018-05-26T12:25:54.416Z,27.5
2018-05-26T12:26:54.830Z,27.59
2018-05-26T12:27:54.417Z,27.64
2018-05-26T12:28:54.473Z,27.68
2018-05-26T12:29:54.461Z,27.61
2018-05-26T12:30:54.408Z,27.53
2018-05-26T12:31:54.545Z,27.6
2018-05-26T12:32:54.845Z,27.65
2018-05-26T12:33:54.517Z,27.65
2018-05-26T12:34:55.565Z,27.71
2018-05-26T12:35:54.413Z,27.78
2018-05-26T12:36:54.432Z,27.79
2018-05-26T12:37:56.590Z,27.82
2018-05-26T12:38:54.392Z,27.9
2018-05-26T12:39:54.417Z,27.91
2018-05-26T12:40:54.600Z,27.94
2018-05-26T12:41:54.618Z,27.99
2018-05-26T12:42:54.508Z,28.05
2018-05-26T12:43:54.535Z,28.14
2018-05-26T12:44:55.019Z,28.19
2018-05-26T12:45:54.422Z,28.26
2018-05-26T12:46:54.533Z,28.26
2018-05-26T12:47:54.456Z,28.3
2018-05-26T12:48:54.448Z,28.04
2018-05-26T12:49:54.547Z,28.03
2018-05-26T12:50:54.429Z,28.01
2018-05-26T12:51:54.569Z,27.98
2018-05-26T12:52:54.421Z,27.97
2018-05-26T12:53:54.392Z,28.03
2018-05-26T12:54:54.427Z,27.96
2018-05-26T12:55:54.429Z,27.92